Angwin, California
Current Conditions -  °F | °C
As of 9:53 AM on Saturday 20 Dec 2014 (Local Time) from KSTS Reporting Station
Haze Haze  
Wind Chill: 54°   Ceiling: 400
Heat Index: 54°   Visibility: 2mi
Dew Point: 52°   Wind: 6mph
Humidity: 93%   Direction: 170°S
Pressure: 30.19"   Gusts: NA
Location:  38.58°N, 122.45°W
Report Text: KSTS 201753Z 17005KT 2SM BR OVC004 12/11 A3019 RMK AO2 SLP215 T01220111 10122 20111 51015
Loading
Personal Weather Stations






























Interactive Weather Map New forecast layout! Learn more

10-Day Weather Forecast

Advertisements
Track Severe Weather on mobile